createdAt,value
2024-02-08T00:01:46.377Z,7.10
2024-02-08T00:04:16.905Z,7.50
2024-02-08T00:06:47.479Z,8.30
2024-02-08T00:09:17.960Z,6.90
2024-02-08T00:11:48.493Z,7.10
2024-02-08T00:14:18.913Z,8.10
2024-02-08T00:16:49.390Z,7.30
2024-02-08T00:19:20.030Z,6.80
2024-02-08T00:21:51.472Z,7.40
2024-02-08T00:24:22.227Z,7.50
2024-02-08T00:26:52.627Z,7.20
2024-02-08T00:29:26.962Z,6.90
2024-02-08T00:32:01.160Z,7.80
2024-02-08T00:34:31.851Z,7.50
2024-02-08T00:37:02.372Z,6.90
2024-02-08T00:39:32.813Z,7.20
2024-02-08T00:42:03.301Z,6.70
2024-02-08T00:44:33.736Z,6.80
2024-02-08T00:47:04.423Z,7.00
2024-02-08T00:49:35.020Z,6.70
2024-02-08T00:52:06.110Z,7.40
2024-02-08T00:54:37.071Z,6.30
2024-02-08T00:57:11.501Z,7.00
2024-02-08T00:59:42.103Z,6.60
2024-02-08T01:02:12.578Z,7.10
2024-02-08T01:04:49.834Z,6.90
2024-02-08T01:07:20.362Z,7.10
2024-02-08T01:09:50.785Z,6.30
2024-02-08T01:12:21.466Z,6.60
2024-02-08T01:14:52.821Z,6.70
2024-02-08T01:17:23.283Z,6.60
2024-02-08T01:19:54.265Z,6.50
2024-02-08T01:22:24.813Z,6.50
2024-02-08T01:24:56.465Z,7.00
2024-02-08T01:27:27.046Z,6.50
2024-02-08T01:30:00.724Z,6.80
2024-02-08T01:32:31.387Z,6.90
2024-02-08T01:35:01.899Z,6.90
2024-02-08T01:37:39.424Z,6.80
2024-02-08T01:40:17.829Z,6.50
2024-02-08T01:42:49.338Z,6.60
2024-02-08T01:45:34.591Z,6.60
2024-02-08T01:48:11.899Z,6.20
2024-02-08T01:50:46.736Z,7.60
2024-02-08T01:53:19.850Z,7.50
2024-02-08T01:55:52.209Z,7.30
2024-02-08T01:58:23.881Z,7.30
2024-02-08T02:00:55.312Z,7.60
2024-02-08T02:03:25.939Z,7.00
2024-02-08T02:05:56.372Z,7.10
2024-02-08T02:08:28.303Z,7.30
2024-02-08T02:11:08.662Z,8.00
2024-02-08T02:13:41.760Z,6.70
2024-02-08T02:16:12.275Z,7.60
2024-02-08T02:18:42.730Z,6.90
2024-02-08T02:21:15.099Z,7.20
2024-02-08T02:23:47.136Z,6.80
2024-02-08T02:26:19.943Z,6.90
2024-02-08T02:28:52.238Z,6.40
2024-02-08T02:31:25.268Z,7.10
2024-02-08T02:33:56.317Z,8.10
2024-02-08T02:36:27.186Z,6.60
2024-02-08T02:38:57.573Z,7.30
2024-02-08T02:41:29.218Z,7.90
2024-02-08T02:43:59.847Z,6.90
2024-02-08T02:46:30.524Z,7.10
2024-02-08T02:49:01.892Z,7.40
2024-02-08T02:51:32.923Z,7.50
2024-02-08T02:54:03.299Z,7.30
2024-02-08T02:56:33.669Z,7.10
2024-02-08T02:59:04.731Z,6.80
2024-02-08T03:01:39.675Z,7.10
2024-02-08T03:04:10.197Z,7.00
2024-02-08T03:06:43.990Z,6.90
2024-02-08T03:09:17.447Z,6.50
2024-02-08T03:11:48.245Z,6.40
2024-02-08T03:14:20.671Z,6.40
2024-02-08T03:16:51.874Z,6.20
2024-02-08T03:19:23.039Z,6.40
2024-02-08T03:21:55.774Z,6.10
2024-02-08T03:24:26.483Z,6.80
2024-02-08T03:26:57.001Z,6.70
2024-02-08T03:29:27.817Z,6.60
2024-02-08T03:31:59.453Z,6.70
2024-02-08T03:34:32.557Z,6.70
2024-02-08T03:37:05.066Z,6.30
2024-02-08T03:39:36.472Z,7.20
2024-02-08T03:42:08.127Z,6.80
2024-02-08T03:44:39.780Z,6.20
2024-02-08T03:47:10.906Z,6.80
2024-02-08T03:49:51.187Z,6.90
2024-02-08T03:52:21.815Z,6.30
2024-02-08T03:54:55.177Z,6.80
2024-02-08T03:57:26.206Z,6.60
2024-02-08T04:00:02.332Z,7.00
2024-02-08T04:02:36.136Z,6.80
2024-02-08T04:05:07.928Z,6.40
2024-02-08T04:07:58.520Z,6.30
2024-02-08T04:10:58.464Z,6.30
2024-02-08T04:13:47.418Z,6.80
2024-02-08T04:16:47.148Z,6.90
2024-02-08T04:19:35.112Z,6.70
2024-02-08T04:25:10.178Z,5.80
2024-02-08T04:27:58.261Z,6.60
2024-02-08T04:30:46.524Z,6.80
2024-02-08T04:33:35.802Z,6.40
2024-02-08T04:36:29.722Z,6.20
2024-02-08T04:39:17.750Z,6.40
2024-02-08T04:42:05.947Z,5.90
2024-02-08T04:44:53.969Z,6.20
2024-02-08T04:47:42.317Z,5.80
2024-02-08T04:50:30.660Z,6.20
2024-02-08T04:53:23.937Z,7.10
2024-02-08T04:55:54.366Z,6.60
2024-02-08T04:58:47.974Z,6.40
2024-02-08T05:01:18.740Z,6.30
2024-02-08T05:03:49.264Z,6.40
2024-02-08T05:06:22.918Z,6.60
2024-02-08T05:09:00.692Z,7.00
2024-02-08T05:11:31.422Z,6.30
2024-02-08T05:14:02.908Z,6.50
2024-02-08T05:16:38.433Z,6.60
2024-02-08T05:19:10.902Z,6.50
2024-02-08T05:21:42.790Z,6.10
2024-02-08T05:24:15.015Z,6.70
2024-02-08T05:26:46.010Z,6.60
2024-02-08T05:29:21.169Z,6.80
2024-02-08T05:31:52.070Z,6.00
2024-02-08T05:34:23.110Z,6.20
2024-02-08T05:36:56.947Z,6.90
2024-02-08T05:39:29.674Z,6.80
2024-02-08T05:42:00.670Z,6.50
2024-02-08T05:44:32.823Z,6.60
2024-02-08T05:47:10.377Z,6.40
2024-02-08T05:49:47.167Z,12.20
2024-02-08T05:52:18.369Z,14.00
2024-02-08T05:54:53.701Z,9.10
2024-02-08T05:57:25.716Z,7.00
2024-02-08T06:00:01.906Z,7.50
2024-02-08T06:02:32.665Z,6.50
2024-02-08T06:05:10.873Z,6.80
2024-02-08T06:07:57.653Z,6.40
2024-02-08T06:10:43.281Z,5.60
2024-02-08T06:13:17.889Z,6.10
2024-02-08T06:15:52.067Z,6.10
2024-02-08T06:18:26.912Z,7.50
2024-02-08T06:21:01.245Z,6.70
2024-02-08T06:23:36.434Z,6.60
2024-02-08T06:26:24.962Z,6.60
2024-02-08T06:28:55.627Z,6.40
2024-02-08T06:31:34.356Z,6.70
2024-02-08T06:34:34.451Z,6.40
2024-02-08T06:39:57.944Z,5.70
2024-02-08T06:42:46.198Z,6.80
2024-02-08T06:48:37.114Z,9.20
2024-02-08T06:51:26.773Z,10.90
2024-02-08T06:54:14.685Z,9.80
2024-02-08T06:59:50.297Z,9.00
2024-02-08T07:02:39.370Z,10.30
2024-02-08T07:05:28.310Z,8.90
2024-02-08T07:08:16.530Z,7.30
2024-02-08T07:11:04.493Z,8.00
2024-02-08T07:16:39.189Z,7.30
2024-02-08T07:19:26.918Z,7.30
2024-02-08T07:22:16.887Z,7.80
2024-02-08T07:25:05.223Z,8.20
2024-02-08T07:27:53.152Z,7.80
2024-02-08T07:30:41.125Z,7.50
2024-02-08T07:36:15.640Z,7.10
2024-02-08T07:38:55.172Z,8.50
2024-02-08T07:41:25.775Z,8.20
2024-02-08T07:43:57.215Z,7.40
2024-02-08T07:46:31.225Z,7.70
2024-02-08T07:49:07.026Z,8.30
2024-02-08T07:51:44.532Z,7.60
2024-02-08T07:54:21.711Z,8.10
2024-02-08T07:56:55.138Z,8.00
2024-02-08T07:59:28.945Z,7.30
2024-02-08T08:01:59.843Z,7.30
2024-02-08T08:04:53.090Z,6.40
2024-02-08T08:07:25.537Z,7.20
2024-02-08T08:10:08.716Z,6.90
2024-02-08T08:12:39.682Z,6.60
2024-02-08T08:15:18.239Z,6.50
2024-02-08T08:18:01.512Z,6.60
2024-02-08T08:20:50.274Z,6.90
2024-02-08T08:23:27.921Z,6.20
2024-02-08T08:29:03.521Z,5.60
2024-02-08T08:31:40.166Z,6.20
2024-02-08T08:34:24.775Z,6.00
2024-02-08T08:37:05.522Z,6.50
2024-02-08T08:40:22.027Z,5.80
2024-02-08T08:42:56.020Z,6.10
2024-02-08T08:45:26.650Z,5.80
2024-02-08T08:48:02.377Z,5.90
2024-02-08T08:50:33.082Z,6.10
2024-02-08T08:53:08.770Z,5.80
2024-02-08T08:55:41.251Z,5.50
2024-02-08T08:58:13.723Z,5.50
2024-02-08T09:00:48.132Z,5.60
2024-02-08T09:03:28.053Z,5.70
2024-02-08T09:05:59.263Z,4.70
2024-02-08T09:08:43.028Z,5.50
2024-02-08T09:11:14.920Z,5.20
2024-02-08T09:13:46.497Z,5.80
2024-02-08T09:16:34.481Z,5.40
2024-02-08T09:19:13.712Z,5.30
2024-02-08T09:21:46.685Z,6.40
2024-02-08T09:24:20.736Z,6.60
2024-02-08T09:26:53.533Z,5.90
2024-02-08T09:29:30.017Z,5.80
2024-02-08T09:32:17.089Z,5.70
2024-02-08T09:34:54.482Z,5.30
2024-02-08T09:37:25.184Z,5.80
2024-02-08T09:40:00.150Z,5.40
2024-02-08T09:42:31.537Z,6.90
2024-02-08T09:45:19.276Z,6.40
2024-02-08T09:50:37.579Z,5.40
2024-02-08T09:53:17.405Z,5.80
2024-02-08T09:55:50.365Z,6.10
2024-02-08T09:58:38.629Z,5.90
2024-02-08T10:01:24.192Z,5.20
2024-02-08T10:04:06.372Z,5.30
2024-02-08T10:06:47.624Z,5.30
2024-02-08T10:09:41.900Z,4.60
2024-02-08T10:12:20.503Z,5.00
2024-02-08T10:15:01.175Z,5.70
2024-02-08T10:17:42.934Z,4.90
2024-02-08T10:20:37.712Z,5.00
2024-02-08T10:23:34.860Z,4.70
2024-02-08T10:26:28.173Z,5.20
2024-02-08T10:29:09.620Z,5.90
2024-02-08T10:31:40.358Z,6.00
2024-02-08T10:34:12.201Z,6.50
2024-02-08T10:36:46.579Z,5.70
2024-02-08T10:39:26.549Z,6.20
2024-02-08T10:42:00.804Z,5.40
2024-02-08T10:44:34.555Z,6.60
2024-02-08T10:47:10.380Z,6.40
2024-02-08T10:49:47.464Z,6.20
2024-02-08T10:52:22.844Z,6.00
2024-02-08T10:54:57.123Z,6.50
2024-02-08T10:58:04.265Z,6.20
2024-02-08T11:01:08.106Z,5.90
2024-02-08T11:03:54.117Z,6.50
2024-02-08T11:06:30.900Z,5.50
2024-02-08T11:09:15.580Z,5.90
2024-02-08T11:11:52.940Z,5.50
2024-02-08T11:14:26.526Z,4.20
2024-02-08T11:17:05.327Z,4.60
2024-02-08T11:19:41.121Z,4.60
2024-02-08T11:22:36.451Z,4.20
2024-02-08T11:25:21.712Z,4.10
2024-02-08T11:27:53.760Z,4.10
2024-02-08T11:30:35.721Z,4.10
2024-02-08T11:33:07.137Z,4.80
2024-02-08T11:35:46.781Z,4.70
2024-02-08T11:38:18.785Z,4.10
2024-02-08T11:40:53.078Z,4.90
2024-02-08T11:43:28.205Z,4.40
2024-02-08T11:45:59.562Z,4.00
2024-02-08T11:48:31.449Z,4.20
2024-02-08T11:51:11.849Z,4.00
2024-02-08T11:53:45.647Z,3.70
2024-02-08T11:56:22.109Z,5.40
2024-02-08T11:58:55.395Z,4.70
2024-02-08T12:01:27.656Z,4.50
2024-02-08T12:03:59.486Z,4.30
2024-02-08T12:06:33.486Z,4.40
2024-02-08T12:09:04.953Z,4.80
2024-02-08T12:11:36.269Z,4.00
2024-02-08T12:14:15.736Z,3.90
2024-02-08T12:16:58.834Z,4.20
2024-02-08T12:19:30.758Z,3.70
2024-02-08T12:22:05.464Z,4.20
2024-02-08T12:24:36.759Z,3.20
2024-02-08T12:27:16.255Z,3.60
2024-02-08T12:29:52.574Z,3.70
2024-02-08T12:32:31.663Z,4.40
2024-02-08T12:35:15.079Z,4.10
2024-02-08T12:37:47.558Z,4.60
2024-02-08T12:40:20.458Z,4.50
2024-02-08T12:42:55.059Z,3.40
2024-02-08T12:45:25.695Z,3.80
2024-02-08T12:47:57.756Z,3.60
2024-02-08T12:53:07.082Z,3.30
2024-02-08T12:55:37.692Z,3.70
2024-02-08T12:58:14.746Z,4.10
2024-02-08T13:00:47.087Z,3.30
2024-02-08T13:03:19.192Z,2.70
2024-02-08T13:05:51.524Z,3.20
2024-02-08T13:08:23.343Z,2.90
2024-02-08T13:10:58.395Z,3.20
2024-02-08T13:13:30.083Z,2.70
2024-02-08T13:16:11.181Z,2.70
2024-02-08T13:18:44.531Z,3.40
2024-02-08T13:21:16.909Z,3.10
2024-02-08T13:23:53.151Z,3.40
2024-02-08T13:26:30.149Z,3.30
2024-02-08T13:29:03.947Z,3.80
2024-02-08T13:31:39.396Z,3.30
2024-02-08T13:34:10.680Z,3.40
2024-02-08T13:36:45.071Z,4.10
2024-02-08T13:39:15.857Z,4.00
2024-02-08T13:41:47.515Z,3.20
2024-02-08T13:44:18.358Z,3.10
2024-02-08T13:46:50.335Z,3.40
2024-02-08T13:49:23.026Z,3.20
2024-02-08T13:51:53.737Z,3.00
2024-02-08T13:54:24.188Z,3.00
2024-02-08T13:56:54.687Z,2.80
2024-02-08T13:59:26.722Z,3.10
2024-02-08T14:01:57.293Z,6.80
2024-02-08T14:04:28.867Z,5.50
2024-02-08T14:06:59.406Z,5.60
2024-02-08T14:09:32.682Z,4.30
2024-02-08T14:12:09.652Z,4.20
2024-02-08T14:14:43.014Z,3.70
2024-02-08T14:17:21.465Z,3.30
2024-02-08T14:19:55.989Z,3.20
2024-02-08T14:22:28.449Z,2.80
2024-02-08T14:24:59.614Z,3.40
2024-02-08T14:27:32.623Z,3.70
2024-02-08T14:30:06.678Z,3.30
2024-02-08T14:32:37.193Z,3.10
2024-02-08T14:35:17.687Z,3.20
2024-02-08T14:37:48.485Z,2.70
2024-02-08T14:40:19.261Z,1.60
2024-02-08T14:42:49.756Z,1.70
2024-02-08T14:45:25.951Z,1.50
2024-02-08T14:47:56.450Z,1.70
2024-02-08T14:50:40.829Z,1.50
2024-02-08T14:53:12.051Z,2.00
2024-02-08T14:55:46.421Z,1.80
2024-02-08T14:58:34.219Z,1.90
2024-02-08T15:01:12.920Z,1.90
2024-02-08T15:03:45.689Z,1.80
2024-02-08T15:09:37.747Z,1.80
2024-02-08T15:12:15.052Z,1.70
2024-02-08T15:14:46.900Z,2.10
2024-02-08T15:17:20.594Z,2.30
2024-02-08T15:19:53.814Z,2.00
2024-02-08T15:22:43.121Z,2.10
2024-02-08T15:25:17.818Z,1.80
2024-02-08T15:27:54.461Z,1.80
2024-02-08T15:30:38.279Z,1.60
2024-02-08T15:33:30.236Z,1.70
2024-02-08T15:36:11.722Z,1.40
2024-02-08T15:39:01.746Z,1.90
2024-02-08T15:41:43.039Z,1.90
2024-02-08T15:44:16.895Z,2.30
2024-02-08T15:46:51.022Z,2.10
2024-02-08T15:49:30.296Z,2.20
2024-02-08T15:52:00.944Z,2.30
2024-02-08T15:54:39.401Z,1.90
2024-02-08T15:57:13.719Z,2.60
2024-02-08T15:59:46.104Z,2.10
2024-02-08T16:02:19.512Z,2.20
2024-02-08T16:04:52.787Z,2.00
2024-02-08T16:07:29.474Z,3.40
2024-02-08T16:10:00.422Z,3.00
2024-02-08T16:12:40.280Z,3.40
2024-02-08T16:15:18.651Z,3.80
2024-02-08T16:18:01.598Z,3.60
2024-02-08T16:20:40.210Z,3.30
2024-02-08T16:23:15.496Z,2.50
2024-02-08T16:25:46.844Z,2.40
2024-02-08T16:28:22.245Z,7.30
2024-02-08T16:31:01.884Z,4.40
2024-02-08T16:33:43.401Z,6.00
2024-02-08T16:36:36.613Z,6.40
2024-02-08T16:39:22.828Z,5.90
2024-02-08T16:42:01.347Z,14.00
2024-02-08T16:44:36.520Z,8.50
2024-02-08T16:47:29.195Z,9.10
2024-02-08T16:50:08.413Z,6.60
2024-02-08T16:52:49.919Z,11.00
2024-02-08T16:55:23.992Z,10.10
2024-02-08T16:58:07.647Z,10.00
2024-02-08T17:00:40.205Z,8.20
2024-02-08T17:03:30.763Z,4.90
2024-02-08T17:06:12.972Z,5.90
2024-02-08T17:09:02.023Z,5.50
2024-02-08T17:11:36.714Z,6.20
2024-02-08T17:14:09.887Z,5.30
2024-02-08T17:16:47.155Z,4.50
2024-02-08T17:19:47.518Z,5.40
2024-02-08T17:22:42.191Z,6.30
2024-02-08T17:25:43.121Z,4.10
2024-02-08T17:28:22.557Z,9.50
2024-02-08T17:31:08.682Z,5.30
2024-02-08T17:33:41.722Z,5.20
2024-02-08T17:36:14.603Z,4.90
2024-02-08T17:38:45.609Z,4.90
2024-02-08T17:41:17.198Z,4.20
2024-02-08T17:43:56.718Z,3.80
2024-02-08T17:46:31.578Z,4.40
2024-02-08T17:49:06.256Z,4.10
2024-02-08T17:51:39.949Z,3.90
2024-02-08T17:54:11.777Z,3.80
2024-02-08T17:56:46.583Z,6.10
2024-02-08T17:59:18.216Z,4.20
2024-02-08T18:01:57.290Z,3.00
2024-02-08T18:04:31.111Z,5.00
2024-02-08T18:07:09.433Z,4.30
2024-02-08T18:09:54.774Z,3.50
2024-02-08T18:12:35.409Z,3.40
2024-02-08T18:15:13.817Z,4.40
2024-02-08T18:17:47.015Z,3.60
2024-02-08T18:20:18.044Z,3.30
2024-02-08T18:22:49.977Z,4.30
2024-02-08T18:25:29.907Z,4.10
2024-02-08T18:28:01.784Z,4.80
2024-02-08T18:30:34.577Z,4.70
2024-02-08T18:33:06.189Z,4.50
2024-02-08T18:35:37.521Z,4.30
2024-02-08T18:38:12.649Z,6.00
2024-02-08T18:40:51.136Z,6.20
2024-02-08T18:43:21.746Z,9.20
2024-02-08T18:45:53.531Z,8.80
2024-02-08T18:48:30.495Z,5.10
2024-02-08T18:51:07.378Z,4.20
2024-02-08T18:53:41.250Z,3.40
2024-02-08T18:56:14.474Z,3.90
2024-02-08T18:58:53.674Z,4.60
2024-02-08T19:01:29.558Z,4.50
2024-02-08T19:04:05.823Z,4.90
2024-02-08T19:06:41.338Z,5.60
2024-02-08T19:09:20.675Z,5.90
2024-02-08T19:11:54.233Z,5.20
2024-02-08T19:14:28.233Z,4.80
2024-02-08T19:17:00.496Z,5.00
2024-02-08T19:19:35.142Z,4.70
2024-02-08T19:22:14.364Z,3.40
2024-02-08T19:24:47.211Z,3.40
2024-02-08T19:27:17.937Z,3.30
2024-02-08T19:29:48.588Z,3.30
2024-02-08T19:32:21.246Z,3.00
2024-02-08T19:34:53.184Z,3.30
2024-02-08T19:37:24.571Z,3.20
2024-02-08T19:39:56.726Z,3.10
2024-02-08T19:42:27.406Z,2.70
2024-02-08T19:45:01.407Z,3.40
2024-02-08T19:47:32.821Z,3.40
2024-02-08T19:50:08.531Z,3.10
2024-02-08T19:52:46.774Z,3.60
2024-02-08T19:58:09.755Z,3.60
2024-02-08T20:00:47.598Z,3.90
2024-02-08T20:03:28.634Z,3.40
2024-02-08T20:06:02.312Z,3.30
2024-02-08T20:08:36.407Z,3.30
2024-02-08T20:11:13.214Z,3.50
2024-02-08T20:13:48.002Z,3.30
2024-02-08T20:16:28.709Z,3.50
2024-02-08T20:19:02.309Z,3.80
2024-02-08T20:21:33.193Z,3.60
2024-02-08T20:24:03.948Z,3.10
2024-02-08T20:26:34.398Z,2.80
2024-02-08T20:29:05.927Z,3.30
2024-02-08T20:31:37.245Z,3.20
2024-02-08T20:34:09.695Z,3.30
2024-02-08T20:36:43.013Z,3.10
2024-02-08T20:39:21.087Z,2.80
2024-02-08T20:41:56.653Z,2.40
2024-02-08T20:44:32.888Z,2.80
2024-02-08T20:47:10.678Z,5.10
2024-02-08T20:49:43.876Z,4.60
2024-02-08T20:52:19.098Z,5.60
2024-02-08T20:54:58.023Z,4.30
2024-02-08T20:57:30.660Z,6.40
2024-02-08T21:00:06.035Z,8.70
2024-02-08T21:02:41.502Z,6.80
2024-02-08T21:05:13.924Z,4.30
2024-02-08T21:07:48.721Z,5.60
2024-02-08T21:10:27.112Z,3.90
2024-02-08T21:13:01.243Z,3.20
2024-02-08T21:15:40.174Z,3.70
2024-02-08T21:18:14.778Z,4.00
2024-02-08T21:20:47.573Z,3.60
2024-02-08T21:23:20.500Z,2.90
2024-02-08T21:25:52.577Z,2.30
2024-02-08T21:28:27.228Z,2.30
2024-02-08T21:31:00.823Z,2.10
2024-02-08T21:33:33.912Z,2.40
2024-02-08T21:36:07.419Z,3.20
2024-02-08T21:38:39.575Z,2.50
2024-02-08T21:41:12.149Z,2.60
2024-02-08T21:43:44.870Z,2.70
2024-02-08T21:46:19.193Z,3.00
2024-02-08T21:48:52.098Z,2.60
2024-02-08T21:51:27.340Z,2.50
2024-02-08T21:54:02.070Z,2.40
2024-02-08T21:56:39.444Z,2.30
2024-02-08T21:59:15.743Z,2.20
2024-02-08T22:01:47.144Z,2.30
2024-02-08T22:04:19.493Z,1.90
2024-02-08T22:06:50.390Z,2.20
2024-02-08T22:09:23.015Z,2.30
2024-02-08T22:11:56.635Z,2.20
2024-02-08T22:14:29.773Z,2.20
2024-02-08T22:17:10.103Z,2.30
2024-02-08T22:19:45.515Z,2.10
2024-02-08T22:22:18.400Z,1.90
2024-02-08T22:24:57.201Z,1.70
2024-02-08T22:27:30.057Z,1.80
2024-02-08T22:30:02.899Z,1.60
2024-02-08T22:32:37.339Z,1.60
2024-02-08T22:35:11.828Z,1.60
2024-02-08T22:37:44.980Z,1.90
2024-02-08T22:40:20.510Z,1.90
2024-02-08T22:42:53.694Z,1.50
2024-02-08T22:45:25.657Z,1.80
2024-02-08T22:47:57.872Z,2.00
2024-02-08T22:50:30.146Z,1.80
2024-02-08T22:53:07.299Z,1.80
2024-02-08T22:55:41.341Z,1.80
2024-02-08T22:58:13.766Z,1.60
2024-02-08T23:00:51.062Z,2.00
2024-02-08T23:03:25.935Z,2.20
2024-02-08T23:06:00.278Z,1.80
2024-02-08T23:08:31.529Z,2.00
2024-02-08T23:11:04.846Z,1.80
2024-02-08T23:13:37.507Z,1.90
2024-02-08T23:16:10.877Z,2.20
2024-02-08T23:18:43.532Z,1.90
2024-02-08T23:21:22.888Z,2.70
2024-02-08T23:23:56.108Z,2.00
2024-02-08T23:26:28.477Z,1.80
2024-02-08T23:28:59.744Z,2.00
2024-02-08T23:31:32.735Z,1.80
2024-02-08T23:34:05.634Z,1.70
2024-02-08T23:36:40.264Z,1.80
2024-02-08T23:39:12.742Z,1.70
2024-02-08T23:41:45.023Z,2.00
2024-02-08T23:44:17.956Z,1.70
2024-02-08T23:46:50.173Z,1.80
2024-02-08T23:49:22.746Z,1.90
2024-02-08T23:51:54.369Z,1.80
2024-02-08T23:54:26.532Z,1.70
2024-02-08T23:56:58.438Z,2.00
2024-02-08T23:59:30.462Z,1.60
